Latest Weather Observations for Lucas Heights

IDN60801

Issued at 2:35 pm EST Saturday 2 August 2014 (issued every 30 minutes, with the page automatically refreshed every 10 minutes)

About weather observations | Map of weather stations | Latest weather observations for NSW | Other Formats
Station Details ID: 066023 Name: LUCAS HEIGHTS AWS Lat: -34.05 Lon: 150.98 Height: 140.0 m
Data from the previous 72 hours. | See also: Recent months for locations in New South Wales
Date/Time
EST
Temp
°C
App
Temp
°C
Dew
Point
Rel
Hum
%
Delta-T
°C
Wind Press
QNH
hPa
Press
MSL
hPa
Rain
since 9 am
mm
Dir
 
Spd
km/h
Gust
km/h
Spd
kts
Gust
kts
02/02:15pm 12.9 6.8 0.3 42 5.3 SE 22 37 12 20 1026.3 - 0.0
02/02:00pm 13.1 6.5 -0.2 40 5.5 SE 24 37 13 20 1026.1 - 0.0
02/01:45pm 13.3 6.7 -0.7 38 5.8 SSE 24 39 13 21 1025.8 - 0.0
02/01:30pm 13.6 7.7 -1.1 36 6.0 S 20 35 11 19 1025.7 - 0.0
02/01:15pm 13.3 6.5 -1.9 35 6.1 SSE 24 35 13 19 1025.6 - 0.0
02/01:00pm 13.6 7.2 -1.7 34 6.2 SSE 22 37 12 20 1025.6 - 0.0
02/12:45pm 13.4 7.4 -1.8 35 6.1 SSE 20 32 11 17 1025.6 - 0.0
02/12:30pm 13.5 7.7 -1.6 35 6.1 SSE 19 26 10 14 1025.7 - 0.0
02/12:15pm 13.5 7.1 -1.6 35 6.1 S 22 33 12 18 1025.7 - 0.0
02/12:00pm 13.3 7.3 -1.8 35 6.1 SSE 20 32 11 17 1025.8 - 0.0
02/11:45am 13.2 8.3 -0.7 38 5.7 SSW 15 26 8 14 1025.8 - 0.0
02/11:30am 12.5 7.2 -0.8 40 5.4 SSW 17 30 9 16 1025.9 - 0.0
02/11:15am 12.3 6.4 -0.8 40 5.3 SSW 20 33 11 18 1026.0 - 0.0
02/11:00am 11.8 5.5 -1.2 40 5.2 SSW 22 37 12 20 1026.0 - 0.0
02/10:45am 11.4 3.9 -1.5 40 5.1 SSW 28 43 15 23 1025.9 - 0.0
02/10:30am 11.2 4.1 -1.1 42 4.9 SW 26 37 14 20 1025.8 - 0.0
02/10:15am 10.5 3.0 -1.2 44 4.6 SW 28 37 15 20 1025.6 - 0.0
02/10:00am 10.1 3.0 -0.9 46 4.4 SW 26 39 14 21 1025.4 - 0.0
02/09:45am 9.7 2.3 -0.8 48 4.2 SW 28 44 15 24 1025.2 - 0.0
02/09:30am 9.0 0.6 -1.1 49 3.9 SW 33 48 18 26 1025.0 - 0.0
02/09:15am 8.7 0.3 -1.0 50 3.8 SW 33 46 18 25 1024.7 - 0.0
02/09:00am 8.4 0.6 -0.8 52 3.6 SW 30 44 16 24 1024.4 - 0.0
02/08:45am 8.0 -0.2 -0.9 53 3.5 SW 32 52 17 28 1024.1 - 0.0
02/08:30am 7.5 -0.7 -1.0 55 3.3 SW 32 46 17 25 1023.7 - 0.0
02/08:15am 7.2 -0.2 -0.9 56 3.1 SW 28 41 15 22 1023.5 - 0.0
02/08:00am 6.8 0.1 -1.0 57 3.0 SW 24 35 13 19 1023.2 - 0.0
02/07:45am 6.6 -0.9 -1.1 58 2.9 SW 28 37 15 20 1022.8 - 0.0
02/07:30am 6.3 -1.2 -1.2 58 2.8 SW 28 37 15 20 1022.4 - 0.0
02/07:15am 6.1 -1.7 -1.1 60 2.7 SW 30 43 16 23 1022.0 - 0.0
02/07:00am 5.9 -1.9 -1.1 61 2.6 SW 30 41 16 22 1021.6 - 0.0
02/06:45am 5.8 -2.4 -1.1 61 2.6 SW 32 43 17 23 1021.3 - 0.0
02/06:30am 5.9 -1.9 -1.0 61 2.6 SW 30 39 16 21 1021.1 - 0.0
02/06:15am 5.9 -1.2 -1.1 61 2.6 SW 26 41 14 22 1021.0 - 0.0
02/06:00am 6.0 -0.7 -1.1 60 2.7 SW 24 35 13 19 1020.8 - 0.0
02/05:45am 6.2 -0.5 -1.2 59 2.8 SW 24 35 13 19 1020.5 - 0.0
02/05:30am 6.4 -1.0 -1.0 59 2.8 SW 28 46 15 25 1020.1 - 0.0
02/05:15am 6.3 -1.9 -0.9 60 2.7 SW 32 44 17 24 1019.8 - 0.0
02/05:00am 6.0 -1.8 -0.9 61 2.6 SW 30 41 16 22 1019.6 - 0.0
02/04:45am 5.6 -1.8 -1.0 62 2.5 SW 28 33 15 18 1019.4 - 0.0
02/04:30am 5.4 -1.7 -1.2 62 2.5 SW 26 32 14 17 1019.2 - 0.0
02/04:15am 5.5 -0.8 -1.3 61 2.5 SW 22 30 12 16 1019.1 - 0.0
02/04:00am 5.6 -0.4 -1.3 61 2.6 WSW 20 28 11 15 1018.7 - 0.0
02/03:45am 5.9 -0.1 -1.3 60 2.7 WSW 20 30 11 16 1018.5 - 0.0
02/03:30am 6.3 -0.7 -0.8 60 2.7 WSW 26 35 14 19 1018.1 - 0.0
02/03:15am 6.2 -0.9 -0.9 60 2.7 W 26 33 14 18 1017.9 - 0.0
02/03:00am 6.3 -0.4 -0.8 60 2.7 W 24 32 13 17 1018.0 - 0.0
02/02:45am 6.7 -0.6 -0.3 61 2.7 WSW 28 35 15 19 1017.9 - 0.0
02/02:30am 6.3 0.1 -0.4 62 2.6 WSW 22 30 12 16 1018.0 - 0.0
02/02:15am 6.1 1.1 -0.9 61 2.7 SW 15 20 8 11 1018.0 - 0.0
02/02:00am 6.3 1.0 -0.8 60 2.7 SW 17 24 9 13 1017.7 - 0.0
02/01:45am 6.8 1.0 -0.4 60 2.8 WSW 20 28 11 15 1017.5 - 0.0
02/01:30am 6.9 -0.4 0.0 61 2.7 WSW 28 33 15 18 1017.3 - 0.0
02/01:15am 6.8 -0.1 0.1 62 2.6 W 26 32 14 17 1017.2 - 0.0
02/01:00am 6.7 0.9 0.0 62 2.6 W 20 30 11 16 1017.2 - 0.0
02/12:45am 6.8 0.7 0.1 62 2.6 W 22 28 12 15 1017.1 - 0.0
02/12:30am 6.8 0.7 0.2 63 2.6 W 22 28 12 15 1017.0 - 0.0
02/12:15am 6.8 0.3 0.1 62 2.6 W 24 30 13 16 1016.8 - 0.0
02/12:00am 7.1 0.6 0.5 63 2.6 W 24 33 13 18 1016.6 - 0.0
 
Date/Time
EST
Temp
°C
App
Temp
°C
Dew
Point
Rel
Hum
%
Delta-T
°C
Wind Press
QNH
hPa
Press
MSL
hPa
Rain
since 9 am
mm
Dir
 
Spd
km/h
Gust
km/h
Spd
kts
Gust
kts
01/11:45pm 6.7 -0.1 0.8 66 2.4 W 26 32 14 17 1016.5 - 0.0
01/11:30pm 5.8 1.4 0.2 67 2.2 SW 13 20 7 11 1016.8 - 0.0
01/11:15pm 6.5 2.1 0.3 64 2.4 WSW 13 22 7 12 1016.3 - 0.0
01/11:00pm 6.9 0.9 1.0 66 2.4 W 22 32 12 17 1015.7 - 0.0
01/10:45pm 6.4 0.8 1.2 69 2.1 WNW 20 30 11 16 1015.8 - 0.0
01/10:30pm 5.7 1.0 0.9 71 1.9 WNW 15 22 8 12 1016.0 - 0.0
01/10:15pm 5.8 2.6 0.8 70 2.0 N 7 17 4 9 1016.0 - 0.0
01/10:00pm 6.3 2.0 1.2 70 2.0 WNW 13 30 7 16 1015.9 - 0.0
01/09:45pm 6.5 0.5 1.3 69 2.1 WNW 22 30 12 16 1015.4 - 0.0
01/09:30pm 6.8 -0.3 1.4 68 2.2 WNW 28 37 15 20 1015.2 - 0.0
01/09:15pm 6.9 -1.5 1.6 69 2.2 W 35 44 19 24 1015.0 - 0.0
01/09:00pm 6.7 -1.2 2.1 72 1.9 W 33 46 18 25 1014.9 - 0.0
01/08:45pm 6.4 -0.6 1.7 72 1.9 WNW 28 35 15 19 1015.0 - 0.0
01/08:30pm 6.7 0.8 1.6 70 2.1 W 22 30 12 16 1015.0 - 0.0
01/08:15pm 6.9 -0.2 1.5 68 2.2 W 28 35 15 19 1014.8 - 0.0
01/08:00pm 7.3 -0.2 1.4 66 2.4 W 30 39 16 21 1014.7 - 0.0
01/07:45pm 7.9 -0.5 1.4 63 2.7 W 35 54 19 29 1014.7 - 0.0
01/07:30pm 8.8 -1.4 0.8 57 3.3 W 44 67 24 36 1014.5 - 0.0
01/07:15pm 9.9 -0.5 -0.2 49 4.1 W 44 65 24 35 1014.0 - 0.0
01/07:00pm 10.4 -0.1 -0.9 45 4.5 W 44 61 24 33 1013.5 - 0.0
01/06:45pm 10.7 1.9 -1.5 42 4.8 W 35 50 19 27 1013.3 - 0.0
01/06:30pm 10.9 4.1 -1.6 41 4.9 W 24 43 13 23 1013.0 - 0.0
01/06:15pm 11.3 4.5 -2.2 39 5.3 W 24 37 13 20 1012.6 - 0.0
01/06:00pm 11.7 4.8 -2.7 36 5.6 W 24 35 13 19 1012.1 - 0.0
01/05:45pm 12.0 3.9 -2.8 35 5.7 W 30 44 16 24 1011.6 - 0.0
01/05:30pm 12.1 4.4 -3.0 35 5.8 W 28 41 15 22 1011.3 - 0.0
01/05:15pm 12.4 3.7 -3.3 33 6.0 W 33 50 18 27 1011.0 - 0.0
01/05:00pm 12.8 3.7 -3.6 31 6.3 W 35 56 19 30 1010.6 - 0.0
01/04:45pm 13.3 5.9 -3.5 31 6.5 W 26 44 14 24 1010.3 - 0.0
01/04:30pm 13.7 5.1 -3.9 29 6.8 WSW 32 54 17 29 1010.0 - 0.0
01/04:15pm 13.9 5.6 -4.5 27 7.0 W 30 44 16 24 1009.7 - 0.0
01/04:00pm 14.0 6.1 -4.4 27 7.0 W 28 50 15 27 1009.5 - 0.0
01/03:45pm 13.9 2.6 -4.7 27 7.1 W 46 67 25 36 1009.4 - 0.0
01/03:30pm 14.1 4.9 -4.4 27 7.1 W 35 54 19 29 1009.2 - 0.0
01/03:15pm 14.1 4.1 -4.4 27 7.1 W 39 57 21 31 1009.0 - 0.0
01/03:00pm 14.2 3.5 -4.7 26 7.2 W 43 63 23 34 1008.9 - 0.0
01/02:45pm 14.4 4.0 -4.8 26 7.3 W 41 63 22 34 1008.7 - 0.0
01/02:30pm 14.6 6.5 -3.2 29 7.0 W 30 57 16 31 1008.5 - 0.0
01/02:15pm 14.6 7.3 -2.5 30 6.9 WSW 26 43 14 23 1008.3 - 0.0
01/02:00pm 14.5 7.6 -2.3 31 6.8 WSW 24 41 13 22 1008.3 - 0.0
01/01:45pm 14.4 6.8 -2.1 32 6.7 W 28 41 15 22 1008.2 - 0.0
01/01:30pm 14.2 5.8 -2.7 31 6.7 W 32 50 17 27 1008.0 - 0.0
01/01:15pm 14.3 5.8 -1.6 33 6.5 WSW 33 50 18 27 1008.1 - 0.0
01/01:00pm 14.2 4.6 -1.7 33 6.5 WSW 39 56 21 30 1008.1 - 0.0
01/12:45pm 14.4 4.4 -1.7 33 6.6 WSW 41 59 22 32 1008.1 - 0.0
01/12:30pm 14.4 6.0 -0.8 35 6.3 WSW 33 57 18 31 1008.1 - 0.0
01/12:15pm 14.3 5.3 0.0 37 6.0 WSW 37 52 20 28 1008.0 - 0.0
01/12:00pm 15.0 7.1 0.9 38 6.1 WSW 32 54 17 29 1008.1 - 0.0
01/11:45am 14.8 5.4 -0.2 36 6.3 W 39 57 21 31 1008.2 - 0.0
01/11:30am 14.7 5.0 0.6 38 6.1 WSW 41 61 22 33 1008.0 - 0.0
01/11:15am 14.8 7.1 2.3 43 5.6 WSW 32 48 17 26 1007.8 - 0.0
01/11:00am 14.8 7.5 2.7 44 5.4 WSW 30 41 16 22 1007.7 - 0.0
01/10:45am 14.8 8.8 3.2 45 5.3 W 24 37 13 20 1007.6 - 0.0
01/10:30am 14.8 9.3 4.0 48 5.0 WSW 22 33 12 18 1007.6 - 0.0
01/10:15am 14.6 10.1 4.0 49 4.9 WSW 17 28 9 15 1007.7 - 0.0
01/10:00am 15.0 10.1 4.1 48 5.1 WSW 19 32 10 17 1007.7 - 0.0
01/09:45am 15.5 11.0 4.3 47 5.2 WSW 17 26 9 14 1007.5 - 0.0
01/09:30am 15.6 11.5 4.3 47 5.3 SW 15 22 8 12 1007.5 - 0.0
01/09:15am 15.5 10.4 4.1 46 5.3 WSW 20 32 11 17 1007.5 - 0.0
01/09:00am 15.4 10.5 4.0 46 5.3 WSW 19 30 10 16 1007.4 - 0.0
01/08:45am 15.4 12.0 4.1 47 5.3 SW 11 22 6 12 1007.2 - 0.0
01/08:30am 15.0 11.6 3.8 47 5.2 SW 11 15 6 8 1007.3 - 0.0
01/08:15am 14.5 10.6 3.5 47 5.0 SW 13 19 7 10 1007.2 - 0.0
01/08:00am 14.1 10.1 3.0 47 5.0 SW 13 17 7 9 1007.0 - 0.0
01/07:45am 13.8 9.3 2.3 45 5.1 SW 15 19 8 10 1006.9 - 0.0
01/07:30am 13.7 9.0 1.2 42 5.4 SW 15 22 8 12 1006.8 - 0.0
01/07:15am 13.9 9.4 -0.1 38 5.9 SW 13 22 7 12 1006.6 - 0.0
01/07:00am 14.6 8.9 -0.6 35 6.4 WSW 19 26 10 14 1006.2 - 0.0
01/06:45am 13.9 8.2 -1.1 35 6.2 WSW 19 30 10 16 1005.8 - 0.0
01/06:30am 15.4 10.0 -1.2 32 6.9 W 17 26 9 14 1005.4 - 0.0
01/06:15am 16.3 10.4 -0.7 31 7.2 WNW 20 32 11 17 1004.9 - 0.0
01/06:00am 15.2 9.3 -0.6 34 6.6 WNW 20 33 11 18 1004.6 - 0.0
01/05:45am 14.1 9.0 -1.6 34 6.4 NW 15 33 8 18 1004.5 - 0.0
01/05:30am 14.5 9.4 -1.6 33 6.6 NW 15 30 8 16 1004.4 - 0.0
01/05:15am 14.8 8.8 -1.5 32 6.7 NW 20 33 11 18 1004.5 - 0.0
01/05:00am 14.5 9.1 -1.6 33 6.6 NW 17 26 9 14 1004.4 - 0.0
01/04:45am 14.1 9.1 -1.4 34 6.3 NW 15 22 8 12 1004.2 - 0.0
01/04:30am 12.9 9.0 -1.8 36 5.9 N 9 19 5 10 1003.9 - 0.0
01/04:15am 12.9 7.8 -1.6 36 5.8 - 15 20 8 11 1003.8 - 0.0
01/04:00am 13.1 7.3 -1.5 36 5.9 N 19 24 10 13 1004.0 - 0.0
01/03:45am 13.0 7.0 -1.3 37 5.8 N 20 26 11 14 1004.2 - 0.0
01/03:30am 12.7 6.7 -1.2 38 5.6 N 20 26 11 14 1004.2 - 0.0
01/03:15am 12.8 7.0 -1.3 37 5.7 N 19 22 10 12 1004.2 - 0.0
01/03:00am 13.8 8.4 -1.3 35 6.2 N 17 22 9 12 1004.4 - 0.0
01/02:45am 14.1 8.7 -1.2 35 6.3 N 17 22 9 12 1004.5 - 0.0
01/02:30am 14.2 8.3 -1.1 35 6.3 N 20 28 11 15 1004.6 - 0.0
01/02:15am 14.6 8.7 -1.0 34 6.5 NNW 20 30 11 16 1004.7 - 0.0
01/02:00am 14.6 7.9 -0.9 34 6.4 NNW 24 33 13 18 1004.8 - 0.0
01/01:45am 14.8 8.1 -0.8 34 6.5 NNW 24 33 13 18 1005.0 - 0.0
01/01:30am 15.0 8.7 -0.7 34 6.6 NNW 22 30 12 16 1005.2 - 0.0
01/01:15am 15.3 9.0 -0.7 33 6.7 NNW 22 32 12 17 1005.3 - 0.0
01/01:00am 15.6 9.4 -0.6 33 6.8 NNW 22 33 12 18 1005.4 - 0.0
01/12:45am 15.8 9.2 -0.5 33 6.9 NNW 24 33 13 18 1005.4 - 0.0
01/12:30am 15.8 9.2 -0.4 33 6.9 NNW 24 33 13 18 1005.5 - 0.0
01/12:15am 15.3 9.1 -0.4 34 6.6 NNW 22 35 12 19 1005.7 - 0.0
01/12:00am 14.7 8.5 0.0 36 6.2 NNW 22 33 12 18 1005.8 - 0.0
 
Date/Time
EST
Temp
°C
App
Temp
°C
Dew
Point
Rel
Hum
%
Delta-T
°C
Wind Press
QNH
hPa
Press
MSL
hPa
Rain
since 9 am
mm
Dir
 
Spd
km/h
Gust
km/h
Spd
kts
Gust
kts
31/11:45pm 14.4 8.8 -0.1 37 6.1 NNW 19 28 10 15 1006.1 - 0.0
31/11:30pm 15.0 9.4 -0.2 35 6.4 NNW 19 26 10 14 1006.3 - 0.0
31/11:15pm 15.7 9.9 -0.1 34 6.8 NNW 20 32 11 17 1006.3 - 0.0
31/11:00pm 16.2 9.3 0.0 33 7.0 NNW 26 39 14 21 1006.1 - 0.0
31/10:45pm 16.6 9.3 0.1 32 7.1 NNW 28 39 15 21 1006.1 - 0.0
31/10:30pm 16.7 8.7 0.2 32 7.2 NNW 32 46 17 25 1006.0 - 0.0
31/10:15pm 17.1 8.9 0.2 32 7.4 NNW 33 46 18 25 1006.0 - 0.0
31/10:00pm 17.1 8.5 0.3 32 7.3 NNW 35 46 19 25 1006.0 - 0.0
31/09:45pm 17.3 8.7 0.2 31 7.5 NNW 35 50 19 27 1006.0 - 0.0
31/09:30pm 17.5 8.9 0.2 31 7.6 NNW 35 54 19 29 1006.0 - 0.0
31/09:15pm 17.5 8.9 0.3 31 7.5 NNW 35 50 19 27 1006.2 - 0.0
31/09:00pm 17.7 9.1 0.3 31 7.6 NNW 35 50 19 27 1006.4 - 0.0
31/08:45pm 17.6 9.0 0.3 31 7.6 NW 35 48 19 26 1006.4 - 0.0
31/08:30pm 17.7 9.1 0.2 30 7.7 NW 35 44 19 24 1006.5 - 0.0
31/08:15pm 17.9 9.7 0.2 30 7.8 NW 33 46 18 25 1006.6 - 0.0
31/08:00pm 18.0 10.3 0.1 30 7.8 NW 30 41 16 22 1006.7 - 0.0
31/07:45pm 18.3 11.0 0.1 29 8.0 NW 28 41 15 22 1006.6 - 0.0
31/07:30pm 18.6 10.9 0.1 28 8.1 NNW 30 43 16 23 1006.5 - 0.0
31/07:15pm 18.8 10.6 0.2 28 8.2 NW 33 44 18 24 1006.5 - 0.0
31/07:00pm 19.0 10.9 0.0 28 8.4 NW 32 46 17 25 1006.5 - 0.0
31/06:45pm 18.9 11.2 -0.2 27 8.4 NW 30 44 16 24 1006.5 - 0.0
31/06:30pm 19.2 12.6 -0.2 27 8.5 NW 24 37 13 20 1006.5 - 0.0
31/06:15pm 19.5 12.9 -0.2 26 8.7 NW 24 35 13 19 1006.4 - 0.0
31/06:00pm 20.1 13.5 -0.5 25 9.1 NW 24 33 13 18 1006.4 - 0.0
31/05:45pm 20.6 13.6 -0.6 24 9.4 NW 26 39 14 21 1006.5 - 0.0
31/05:30pm 21.1 14.1 -0.8 23 9.7 NW 26 37 14 20 1006.5 - 0.0
31/05:15pm 21.6 13.8 -0.9 22 10.0 NW 30 50 16 27 1006.6 - 0.0
31/05:00pm 22.1 13.7 -1.0 21 10.3 NW 33 56 18 30 1006.5 - 0.0
31/04:45pm 22.5 14.1 -0.8 21 10.4 NW 33 57 18 31 1006.4 - 0.0
31/04:30pm 22.8 13.7 -0.6 21 10.5 NW 37 52 20 28 1006.4 - 0.0
31/04:15pm 22.9 14.6 -0.1 21 10.5 NW 33 50 18 27 1006.5 - 0.0
31/04:00pm 23.1 14.1 0.3 22 10.5 WNW 37 54 20 29 1006.7 - 0.0
31/03:45pm 23.2 14.6 0.5 22 10.5 WNW 35 54 19 29 1006.8 - 0.0
31/03:30pm 23.3 14.4 0.6 22 10.5 WNW 37 52 20 28 1006.9 - 0.0
31/03:15pm 23.3 13.2 0.3 22 10.6 WNW 43 70 23 38 1007.0 - 0.0
31/03:00pm 23.4 13.3 0.5 22 10.6 WNW 43 63 23 34 1007.1 - 0.0
31/02:45pm 23.4 13.1 0.5 22 10.6 WNW 44 67 24 36 1007.3 - 0.0
31/02:30pm 23.4 13.1 0.4 22 10.6 WNW 44 72 24 39 1007.5 - 0.0
31/02:15pm 23.4 12.7 -0.1 21 10.7 WNW 46 74 25 40 1007.6 - 0.0
31/02:00pm 23.6 12.9 -0.1 21 10.8 WNW 46 74 25 40 1007.8 - 0.0
31/01:45pm 23.6 12.5 0.1 21 10.8 WNW 48 76 26 41 1008.0 - 0.0
31/01:30pm 23.5 13.2 0.5 22 10.6 WNW 44 69 24 37 1008.3 - 0.0
31/01:15pm 23.6 14.4 1.3 23 10.5 WNW 39 61 21 33 1008.7 - 0.0
31/01:00pm 23.5 14.7 1.6 23 10.3 WNW 37 57 20 31 1009.1 - 0.0
31/12:45pm 23.2 14.5 2.0 25 10.1 WNW 37 52 20 28 1009.5 - 0.0
31/12:30pm 23.0 15.1 2.4 26 9.8 WNW 33 50 18 27 1009.8 - 0.0
31/12:15pm 22.4 14.8 4.0 30 9.0 WNW 33 57 18 31 1010.4 - 0.0
31/12:00pm 21.9 16.2 4.9 33 8.4 NNW 24 39 13 21 1010.9 - 0.0
31/11:45am 21.5 15.5 5.1 34 8.2 NNW 26 39 14 21 1011.4 - 0.0
31/11:30am 21.1 15.9 5.3 35 7.9 NNW 22 41 12 22 1011.8 - 0.0
31/11:15am 20.6 15.3 5.1 36 7.7 NW 22 37 12 20 1012.2 - 0.0
31/11:00am 20.1 12.9 4.8 36 7.5 NW 32 48 17 26 1012.5 - 0.0
31/10:45am 19.7 12.9 5.1 38 7.2 NW 30 50 16 27 1012.8 - 0.0
31/10:30am 19.1 14.3 5.8 41 6.6 NNW 20 33 11 18 1013.1 - 0.0
31/10:15am 18.6 14.9 6.3 44 6.1 NNW 15 28 8 15 1013.4 - 0.0
31/10:00am 18.0 14.7 6.4 46 5.8 NNW 13 22 7 12 1013.6 - 0.0
31/09:45am 17.1 13.4 6.2 48 5.4 NNW 15 30 8 16 1013.8 - 0.0
31/09:30am 16.3 11.2 5.9 50 5.1 NNW 22 33 12 18 1013.9 - 0.0
31/09:15am 16.0 10.5 5.9 51 4.9 NNW 24 37 13 20 1014.0 - 0.0
31/09:00am 15.4 10.7 6.2 54 4.5 NNW 20 32 11 17 1014.0 - 0.0
31/08:45am 14.8 9.7 5.9 55 4.3 NW 22 33 12 18 1014.2 - 0.0
31/08:30am 14.3 8.8 6.0 57 4.0 NW 24 33 13 18 1014.3 - 0.0
31/08:15am 13.7 8.6 6.0 59 3.7 NNW 22 32 12 17 1014.3 - 0.0
31/08:00am 12.9 7.0 5.8 62 3.4 NNW 26 35 14 19 1014.4 - 0.0
31/07:45am 12.6 6.3 5.6 62 3.3 NW 28 35 15 19 1014.4 - 0.0
31/07:30am 12.6 5.9 5.4 61 3.4 NNW 30 37 16 20 1014.3 - 0.0
31/07:15am 13.0 7.0 5.2 59 3.7 NW 26 35 14 19 1014.3 - 0.0
31/07:00am 13.3 7.3 5.2 58 3.8 NW 26 33 14 18 1014.3 - 0.0
31/06:45am 13.6 6.9 5.7 59 3.8 NW 30 37 16 20 1014.3 - 0.0
31/06:30am 12.9 5.3 5.9 62 3.3 NW 35 41 19 22 1014.2 - 0.0
31/06:15am 12.7 5.7 5.9 63 3.2 NW 32 39 17 21 1014.1 - 0.0
31/06:00am 12.8 5.8 6.1 64 3.2 NW 32 39 17 21 1014.0 - 0.0
31/05:45am 12.7 5.6 6.3 65 3.1 WNW 33 44 18 24 1014.0 - 0.0
31/05:30am 12.2 6.0 6.3 67 2.8 WNW 28 41 15 22 1014.0 - 0.0
31/05:15am 12.2 6.1 6.4 67 2.8 NW 28 33 15 18 1014.1 - 0.0
31/05:00am 12.0 5.5 6.7 70 2.5 NW 30 37 16 20 1014.2 - 0.0
31/04:45am 11.6 5.9 6.6 71 2.4 NNW 26 33 14 18 1014.3 - 0.0
31/04:30am 11.4 5.7 6.6 72 2.3 NW 26 32 14 17 1014.3 - 0.0
31/04:15am 11.5 6.2 6.7 72 2.3 NNW 24 30 13 16 1014.3 - 0.0
31/04:00am 11.7 6.0 6.9 72 2.3 NW 26 33 14 18 1014.3 - 0.0
31/03:45am 11.6 5.9 6.9 73 2.3 NW 26 32 14 17 1014.4 - 0.0
31/03:30am 11.6 6.0 7.0 73 2.2 NW 26 32 14 17 1014.5 - 0.0
31/03:15am 11.5 6.2 6.9 73 2.2 NW 24 32 13 17 1014.7 - 0.0
31/03:00am 11.4 6.5 7.0 74 2.1 NW 22 28 12 15 1014.8 - 0.0
31/02:45am 11.4 6.5 7.0 74 2.1 NNW 22 26 12 14 1014.9 - 0.0
31/02:30am 11.2 6.7 6.9 75 2.1 NNW 20 26 11 14 1015.1 - 0.0
31/02:15am 11.0 6.4 6.7 75 2.0 NNW 20 26 11 14 1015.4 - 0.0
31/02:00am 10.9 6.3 6.4 74 2.1 NNW 20 22 11 12 1015.5 - 0.0
31/01:45am 11.3 6.9 6.6 73 2.2 NNW 19 24 10 13 1015.6 - 0.0
31/01:30am 11.6 7.3 6.8 72 2.3 NNW 19 24 10 13 1015.8 - 0.0
31/01:15am 11.6 7.6 6.7 72 2.3 NNW 17 26 9 14 1015.9 - 0.0
31/01:00am 11.7 7.3 6.7 71 2.4 NNW 19 26 10 14 1016.0 - 0.0
31/12:45am 11.6 7.9 6.4 70 2.5 NNW 15 22 8 12 1016.2 - 0.0
31/12:30am 11.9 8.2 6.2 68 2.7 NNW 15 19 8 10 1016.4 - 0.0
31/12:15am 12.7 8.1 6.6 66 2.9 NNW 20 28 11 15 1016.6 - 0.0
31/12:00am 12.7 7.4 6.8 67 2.9 NNW 24 30 13 16 1016.7 - 0.0
 
Date/Time
EST
Temp
°C
App
Temp
°C
Dew
Point
Rel
Hum
%
Delta-T
°C
Wind Press
QNH
hPa
Press
MSL
hPa
Rain
since 9 am
mm
Dir
 
Spd
km/h
Gust
km/h
Spd
kts
Gust
kts
30/11:45pm 12.7 7.8 6.7 67 2.9 NNW 22 26 12 14 1016.9 - 0.0
30/11:30pm 12.6 8.2 6.5 66 2.9 NNW 19 24 10 13 1017.1 - 0.0
30/11:15pm 12.8 8.7 6.4 65 3.1 NNW 17 22 9 12 1017.2 - 0.0
30/11:00pm 13.1 8.7 6.4 64 3.2 NNW 19 24 10 13 1017.3 - 0.0
30/10:45pm 13.4 8.4 6.6 63 3.3 NNW 22 26 12 14 1017.4 - 0.0
30/10:30pm 13.3 8.7 6.6 64 3.2 NNW 20 22 11 12 1017.4 - 0.0
30/10:15pm 12.9 8.4 6.1 63 3.2 NNW 19 22 10 12 1017.5 - 0.0
30/10:00pm 13.7 9.2 6.1 60 3.6 NW 19 22 10 12 1017.6 - 0.0
30/09:45pm 14.7 9.7 6.6 58 4.0 NW 22 26 12 14 1017.6 - 0.0
30/09:30pm 14.5 9.6 6.8 60 3.8 NW 22 26 12 14 1017.6 - 0.0
30/09:15pm 13.7 9.1 6.4 61 3.5 NNW 20 24 11 13 1017.6 - 0.0
30/09:00pm 13.8 9.7 6.4 61 3.6 NNW 17 20 9 11 1017.6 - 0.0
30/08:45pm 13.9 9.5 6.5 61 3.6 NNW 19 20 10 11 1017.7 - 0.0
30/08:30pm 13.7 9.7 6.6 62 3.4 NW 17 20 9 11 1017.8 - 0.0
30/08:15pm 13.6 10.3 6.3 61 3.5 NNW 13 19 7 10 1017.8 - 0.0
30/08:00pm 13.9 10.2 6.2 59 3.7 NNW 15 17 8 9 1017.8 - 0.0
30/07:45pm 14.7 11.0 6.3 57 4.1 NW 15 19 8 10 1017.7 - 0.0
30/07:30pm 15.3 12.0 6.5 55 4.3 WNW 13 19 7 10 1017.7 - 0.0
30/07:15pm 15.4 12.8 6.1 54 4.5 WNW 9 15 5 8 1017.7 - 0.0
30/07:00pm 16.3 13.4 6.3 51 4.9 W 11 15 6 8 1017.6 - 0.0
30/06:45pm 16.7 13.0 6.3 50 5.1 W 15 20 8 11 1017.4 - 0.0
30/06:30pm 17.2 12.6 6.3 48 5.4 W 20 26 11 14 1017.3 - 0.0
30/06:15pm 17.7 13.3 6.5 48 5.6 W 19 24 10 13 1016.9 - 0.0
30/06:00pm 17.8 13.8 6.6 48 5.6 W 17 19 9 10 1016.6 - 0.0
30/05:45pm 17.9 14.2 6.4 47 5.7 W 15 22 8 12 1016.4 - 0.0
30/05:30pm 18.4 15.1 6.4 45 6.0 W 13 17 7 9 1016.1 - 0.0
30/05:15pm 18.9 14.8 6.4 44 6.3 W 17 22 9 12 1015.9 - 0.0
30/05:00pm 19.5 15.8 6.4 42 6.6 WSW 15 28 8 15 1015.6 - 0.0
30/04:45pm 19.9 15.3 6.4 41 6.8 WSW 20 30 11 16 1015.5 - 0.0
30/04:30pm 20.2 15.8 6.5 41 6.9 WSW 19 30 10 16 1015.3 - 0.0
30/04:15pm 20.7 16.1 6.6 40 7.2 WSW 20 35 11 19 1015.2 - 0.0
30/04:00pm 20.9 15.9 6.6 39 7.3 WSW 22 33 12 18 1015.1 - 0.0
30/03:45pm 21.3 16.0 6.6 38 7.5 WSW 24 32 13 17 1014.9 - 0.0
30/03:30pm 21.5 17.0 6.8 38 7.5 WSW 20 30 11 16 1014.9 - 0.0
30/03:15pm 21.5 16.2 6.7 38 7.6 WSW 24 35 13 19 1015.0 - 0.0
30/03:00pm 21.6 16.7 6.8 38 7.6 WSW 22 33 12 18 1014.9 - 0.0
30/02:45pm 21.6 16.2 6.4 37 7.7 W 24 37 13 20 1015.0 - 0.0

Other Formats:

Comma delimited format used in spreadsheet applications
http://www.bom.gov.au/fwo/IDN60801/IDN60801.95757.axf

JavaScript Object Notation format (JSON) in row-major order
http://www.bom.gov.au/fwo/IDN60801/IDN60801.95757.json